sensor_id;sensor_type;location;lat;lon;timestamp;pressure;altitude;pressure_sealevel;temperature;humidity
40372;BME280;28564;53.346;-6.554;2022-10-22T00:02:07;98762.57;;;17.81;57.84
40372;BME280;28564;53.346;-6.554;2022-10-22T00:04:34;98764.89;;;17.79;57.71
40372;BME280;28564;53.346;-6.554;2022-10-22T00:07:01;98766.54;;;17.75;57.68
40372;BME280;28564;53.346;-6.554;2022-10-22T00:09:28;98769.70;;;17.72;57.79
40372;BME280;28564;53.346;-6.554;2022-10-22T00:11:55;98773.67;;;17.73;57.69
40372;BME280;28564;53.346;-6.554;2022-10-22T00:14:22;98777.00;;;17.70;57.71
40372;BME280;28564;53.346;-6.554;2022-10-22T00:16:49;98779.45;;;17.67;57.68
40372;BME280;28564;53.346;-6.554;2022-10-22T00:19:16;98780.91;;;17.64;57.71
40372;BME280;28564;53.346;-6.554;2022-10-22T00:21:43;98786.52;;;17.62;57.76
40372;BME280;28564;53.346;-6.554;2022-10-22T00:24:11;98793.05;;;17.63;57.61
40372;BME280;28564;53.346;-6.554;2022-10-22T00:26:38;98801.66;;;17.57;57.56
40372;BME280;28564;53.346;-6.554;2022-10-22T00:29:05;98808.47;;;17.41;57.86
40372;BME280;28564;53.346;-6.554;2022-10-22T00:31:32;98810.91;;;17.20;58.46
40372;BME280;28564;53.346;-6.554;2022-10-22T00:34:00;98808.82;;;17.07;59.04
40372;BME280;28564;53.346;-6.554;2022-10-22T00:36:27;98810.94;;;17.23;59.39
40372;BME280;28564;53.346;-6.554;2022-10-22T00:38:54;98815.64;;;17.18;59.66
40372;BME280;28564;53.346;-6.554;2022-10-22T00:41:21;98816.22;;;17.36;59.87
40372;BME280;28564;53.346;-6.554;2022-10-22T00:43:53;98821.87;;;16.83;59.99
40372;BME280;28564;53.346;-6.554;2022-10-22T00:46:21;98824.28;;;17.08;60.05
40372;BME280;28564;53.346;-6.554;2022-10-22T00:48:48;98826.14;;;17.27;60.19
40372;BME280;28564;53.346;-6.554;2022-10-22T00:51:16;98828.04;;;16.75;60.06
40372;BME280;28564;53.346;-6.554;2022-10-22T00:53:47;98834.15;;;17.22;60.23
40372;BME280;28564;53.346;-6.554;2022-10-22T00:56:16;98838.79;;;16.74;60.28
40372;BME280;28564;53.346;-6.554;2022-10-22T00:58:48;98848.02;;;16.72;60.33
40372;BME280;28564;53.346;-6.554;2022-10-22T01:01:19;98849.04;;;17.00;60.22
40372;BME280;28564;53.346;-6.554;2022-10-22T01:03:47;98848.53;;;17.24;60.24
40372;BME280;28564;53.346;-6.554;2022-10-22T01:06:20;98854.64;;;17.03;60.25
40372;BME280;28564;53.346;-6.554;2022-10-22T01:08:55;98862.59;;;17.04;60.00
40372;BME280;28564;53.346;-6.554;2022-10-22T01:11:38;98866.96;;;17.26;59.96
40372;BME280;28564;53.346;-6.554;2022-10-22T01:14:14;98870.34;;;16.75;59.97
40372;BME280;28564;53.346;-6.554;2022-10-22T01:16:50;98874.96;;;16.73;59.93
40372;BME280;28564;53.346;-6.554;2022-10-22T01:19:31;98880.01;;;16.97;59.99
40372;BME280;28564;53.346;-6.554;2022-10-22T01:22:09;98886.56;;;16.71;59.99
40372;BME280;28564;53.346;-6.554;2022-10-22T01:24:46;98887.95;;;16.72;59.88
40372;BME280;28564;53.346;-6.554;2022-10-22T01:27:28;98894.99;;;17.20;59.77
40372;BME280;28564;53.346;-6.554;2022-10-22T01:30:00;98897.35;;;16.71;59.55
40372;BME280;28564;53.346;-6.554;2022-10-22T01:32:31;98902.11;;;16.96;59.25
40372;BME280;28564;53.346;-6.554;2022-10-22T01:35:03;98904.51;;;17.12;59.07
40372;BME280;28564;53.346;-6.554;2022-10-22T01:37:39;98913.87;;;16.86;59.05
40372;BME280;28564;53.346;-6.554;2022-10-22T01:40:10;98919.06;;;17.04;59.27
40372;BME280;28564;53.346;-6.554;2022-10-22T01:42:37;98921.03;;;17.01;58.95
40372;BME280;28564;53.346;-6.554;2022-10-22T01:45:10;98922.31;;;16.95;58.66
40372;BME280;28564;53.346;-6.554;2022-10-22T01:47:46;98924.62;;;16.94;58.60
40372;BME280;28564;53.346;-6.554;2022-10-22T01:50:32;98929.48;;;16.90;58.56
40372;BME280;28564;53.346;-6.554;2022-10-22T01:53:13;98928.95;;;16.89;58.39
40372;BME280;28564;53.346;-6.554;2022-10-22T01:55:52;98937.33;;;16.68;58.38
40372;BME280;28564;53.346;-6.554;2022-10-22T01:58:33;98936.36;;;16.91;57.86
40372;BME280;28564;53.346;-6.554;2022-10-22T02:01:05;98939.53;;;16.90;57.85
40372;BME280;28564;53.346;-6.554;2022-10-22T02:03:39;98942.01;;;16.89;57.89
40372;BME280;28564;53.346;-6.554;2022-10-22T02:06:13;98946.12;;;16.69;58.10
40372;BME280;28564;53.346;-6.554;2022-10-22T02:08:42;98954.45;;;16.95;58.13
40372;BME280;28564;53.346;-6.554;2022-10-22T02:11:12;98958.30;;;16.76;57.88
40372;BME280;28564;53.346;-6.554;2022-10-22T02:13:43;98954.85;;;17.00;57.51
40372;BME280;28564;53.346;-6.554;2022-10-22T02:16:16;98959.97;;;16.98;57.42
40372;BME280;28564;53.346;-6.554;2022-10-22T02:18:46;98957.82;;;16.77;57.30
40372;BME280;28564;53.346;-6.554;2022-10-22T02:21:16;98963.61;;;16.49;57.31
40372;BME280;28564;53.346;-6.554;2022-10-22T02:23:44;98961.18;;;16.98;57.05
40372;BME280;28564;53.346;-6.554;2022-10-22T02:26:18;98963.34;;;16.76;56.81
40372;BME280;28564;53.346;-6.554;2022-10-22T02:28:56;98968.44;;;16.74;56.81
40372;BME280;28564;53.346;-6.554;2022-10-22T02:31:27;98968.69;;;16.98;56.67
40372;BME280;28564;53.346;-6.554;2022-10-22T02:33:58;98974.75;;;16.97;56.59
40372;BME280;28564;53.346;-6.554;2022-10-22T02:36:29;98979.05;;;16.77;56.12
40372;BME280;28564;53.346;-6.554;2022-10-22T02:38:57;98977.52;;;16.73;55.78
40372;BME280;28564;53.346;-6.554;2022-10-22T02:41:26;98982.83;;;16.91;55.81
40372;BME280;28564;53.346;-6.554;2022-10-22T02:43:54;98981.52;;;16.63;56.04
40372;BME280;28564;53.346;-6.554;2022-10-22T02:46:22;98983.55;;;16.84;55.97
40372;BME280;28564;53.346;-6.554;2022-10-22T02:48:50;98988.17;;;16.58;55.93
40372;BME280;28564;53.346;-6.554;2022-10-22T02:51:17;98991.04;;;16.78;55.51
40372;BME280;28564;53.346;-6.554;2022-10-22T02:53:45;98999.67;;;16.76;55.44
40372;BME280;28564;53.346;-6.554;2022-10-22T02:56:13;99001.16;;;16.74;55.15
40372;BME280;28564;53.346;-6.554;2022-10-22T02:58:40;99005.44;;;16.69;55.15
40372;BME280;28564;53.346;-6.554;2022-10-22T03:01:07;99006.62;;;16.67;55.09
40372;BME280;28564;53.346;-6.554;2022-10-22T03:03:34;99005.34;;;16.40;55.01
40372;BME280;28564;53.346;-6.554;2022-10-22T03:06:01;99012.36;;;16.57;54.75
40372;BME280;28564;53.346;-6.554;2022-10-22T03:08:28;99012.06;;;16.76;54.62
40372;BME280;28564;53.346;-6.554;2022-10-22T03:10:55;99020.39;;;16.50;54.32
40372;BME280;28564;53.346;-6.554;2022-10-22T03:13:23;99017.29;;;16.42;54.11
40372;BME280;28564;53.346;-6.554;2022-10-22T03:15:50;99013.39;;;16.35;53.96
40372;BME280;28564;53.346;-6.554;2022-10-22T03:18:17;99020.74;;;16.27;53.81
40372;BME280;28564;53.346;-6.554;2022-10-22T03:20:44;99026.03;;;16.20;53.64
40372;BME280;28564;53.346;-6.554;2022-10-22T03:23:13;99029.02;;;16.37;53.63
40372;BME280;28564;53.346;-6.554;2022-10-22T03:25:42;99029.80;;;16.13;53.71
40372;BME280;28564;53.346;-6.554;2022-10-22T03:28:13;99034.58;;;16.13;53.76
40372;BME280;28564;53.346;-6.554;2022-10-22T03:30:41;99032.30;;;16.40;53.71
40372;BME280;28564;53.346;-6.554;2022-10-22T03:33:08;99040.88;;;16.17;53.95
40372;BME280;28564;53.346;-6.554;2022-10-22T03:35:38;99043.10;;;16.15;53.82
40372;BME280;28564;53.346;-6.554;2022-10-22T03:38:08;99051.94;;;16.18;53.96
40372;BME280;28564;53.346;-6.554;2022-10-22T03:40:36;99055.52;;;16.18;53.81
40372;BME280;28564;53.346;-6.554;2022-10-22T03:43:03;99061.72;;;16.40;53.92
40372;BME280;28564;53.346;-6.554;2022-10-22T03:45:30;99064.80;;;16.18;53.92
40372;BME280;28564;53.346;-6.554;2022-10-22T03:47:57;99071.64;;;16.38;53.97
40372;BME280;28564;53.346;-6.554;2022-10-22T03:50:24;99077.04;;;16.16;54.14
40372;BME280;28564;53.346;-6.554;2022-10-22T03:52:51;99080.81;;;16.18;54.22
40372;BME280;28564;53.346;-6.554;2022-10-22T03:55:19;99081.66;;;16.15;54.16
40372;BME280;28564;53.346;-6.554;2022-10-22T03:57:45;99086.01;;;16.12;53.98
40372;BME280;28564;53.346;-6.554;2022-10-22T04:00:13;99089.50;;;16.10;54.03
40372;BME280;28564;53.346;-6.554;2022-10-22T04:02:41;99093.76;;;16.30;53.87
40372;BME280;28564;53.346;-6.554;2022-10-22T04:05:08;99088.60;;;16.06;53.78
40372;BME280;28564;53.346;-6.554;2022-10-22T04:07:36;99092.96;;;16.27;53.78
40372;BME280;28564;53.346;-6.554;2022-10-22T04:10:03;99095.07;;;16.03;53.46
40372;BME280;28564;53.346;-6.554;2022-10-22T04:12:31;99101.21;;;16.00;53.23
40372;BME280;28564;53.346;-6.554;2022-10-22T04:14:58;99107.46;;;15.98;52.98
40372;BME280;28564;53.346;-6.554;2022-10-22T04:17:25;99106.03;;;16.16;53.04
40372;BME280;28564;53.346;-6.554;2022-10-22T04:19:53;99102.06;;;15.91;52.80
40372;BME280;28564;53.346;-6.554;2022-10-22T04:22:20;99102.06;;;16.09;52.36
40372;BME280;28564;53.346;-6.554;2022-10-22T04:24:47;99098.50;;;15.99;52.50
40372;BME280;28564;53.346;-6.554;2022-10-22T04:27:14;99108.98;;;15.95;52.38
40372;BME280;28564;53.346;-6.554;2022-10-22T04:29:41;99110.85;;;15.86;52.15
40372;BME280;28564;53.346;-6.554;2022-10-22T04:32:08;99104.97;;;16.08;52.08
40372;BME280;28564;53.346;-6.554;2022-10-22T04:34:35;99108.53;;;15.78;52.09
40372;BME280;28564;53.346;-6.554;2022-10-22T04:37:03;99106.36;;;15.75;51.94
40372;BME280;28564;53.346;-6.554;2022-10-22T04:39:30;99114.03;;;15.69;51.82
40372;BME280;28564;53.346;-6.554;2022-10-22T04:41:57;99115.82;;;15.66;52.07
40372;BME280;28564;53.346;-6.554;2022-10-22T04:44:24;99117.51;;;15.91;51.62
40372;BME280;28564;53.346;-6.554;2022-10-22T04:46:51;99118.42;;;15.58;51.46
40372;BME280;28564;53.346;-6.554;2022-10-22T04:49:18;99117.80;;;15.79;51.38
40372;BME280;28564;53.346;-6.554;2022-10-22T04:51:45;99126.38;;;15.72;51.38
40372;BME280;28564;53.346;-6.554;2022-10-22T04:54:12;99129.80;;;15.63;51.23
40372;BME280;28564;53.346;-6.554;2022-10-22T04:56:39;99132.23;;;15.55;51.26
40372;BME280;28564;53.346;-6.554;2022-10-22T04:59:07;99139.30;;;15.47;51.34
40372;BME280;28564;53.346;-6.554;2022-10-22T05:01:37;99143.55;;;15.40;51.29
40372;BME280;28564;53.346;-6.554;2022-10-22T05:04:07;99154.53;;;15.39;51.35
40372;BME280;28564;53.346;-6.554;2022-10-22T05:06:36;99158.68;;;15.34;51.07
40372;BME280;28564;53.346;-6.554;2022-10-22T05:09:06;99163.06;;;15.27;51.01
40372;BME280;28564;53.346;-6.554;2022-10-22T05:11:36;99170.02;;;15.16;51.15
40372;BME280;28564;53.346;-6.554;2022-10-22T05:14:05;99174.90;;;15.06;51.10
40372;BME280;28564;53.346;-6.554;2022-10-22T05:16:33;99183.11;;;14.97;51.08
40372;BME280;28564;53.346;-6.554;2022-10-22T05:19:01;99185.41;;;14.85;51.17
40372;BME280;28564;53.346;-6.554;2022-10-22T05:21:29;99196.01;;;14.73;51.10
40372;BME280;28564;53.346;-6.554;2022-10-22T05:23:57;99201.44;;;14.63;51.05
40372;BME280;28564;53.346;-6.554;2022-10-22T05:26:27;99211.24;;;14.79;51.17
40372;BME280;28564;53.346;-6.554;2022-10-22T05:28:54;99212.91;;;14.71;51.28
40372;BME280;28564;53.346;-6.554;2022-10-22T05:31:22;99209.29;;;14.41;51.20
40372;BME280;28564;53.346;-6.554;2022-10-22T05:33:50;99208.18;;;14.82;51.21
40372;BME280;28564;53.346;-6.554;2022-10-22T05:36:19;99208.00;;;14.47;51.26
40372;BME280;28564;53.346;-6.554;2022-10-22T05:38:47;99213.05;;;14.41;51.20
40372;BME280;28564;53.346;-6.554;2022-10-22T05:41:16;99224.92;;;14.60;51.21
40372;BME280;28564;53.346;-6.554;2022-10-22T05:43:43;99224.82;;;14.28;51.19
40372;BME280;28564;53.346;-6.554;2022-10-22T05:46:13;99232.95;;;14.49;51.24
40372;BME280;28564;53.346;-6.554;2022-10-22T05:48:41;99231.63;;;14.45;51.23
40372;BME280;28564;53.346;-6.554;2022-10-22T05:51:10;99232.25;;;14.42;51.24
40372;BME280;28564;53.346;-6.554;2022-10-22T05:53:40;99234.13;;;14.37;51.14
40372;BME280;28564;53.346;-6.554;2022-10-22T05:56:10;99234.63;;;14.28;51.13
40372;BME280;28564;53.346;-6.554;2022-10-22T05:58:39;99237.22;;;14.23;51.14
40372;BME280;28564;53.346;-6.554;2022-10-22T06:01:10;99244.10;;;14.17;51.12
40372;BME280;28564;53.346;-6.554;2022-10-22T06:03:38;99241.92;;;14.11;51.19
40372;BME280;28564;53.346;-6.554;2022-10-22T06:06:16;99250.79;;;14.07;51.14
40372;BME280;28564;53.346;-6.554;2022-10-22T06:08:46;99248.53;;;13.75;51.18
40372;BME280;28564;53.346;-6.554;2022-10-22T06:11:13;99248.18;;;13.98;51.18
40372;BME280;28564;53.346;-6.554;2022-10-22T06:13:40;99245.86;;;14.17;51.27
40372;BME280;28564;53.346;-6.554;2022-10-22T06:16:08;99251.54;;;13.92;51.29
40372;BME280;28564;53.346;-6.554;2022-10-22T06:18:35;99257.65;;;13.88;51.43
40372;BME280;28564;53.346;-6.554;2022-10-22T06:21:04;99256.04;;;13.85;51.52
40372;BME280;28564;53.346;-6.554;2022-10-22T06:23:32;99263.04;;;13.86;51.44
40372;BME280;28564;53.346;-6.554;2022-10-22T06:26:00;99257.50;;;14.04;51.37
40372;BME280;28564;53.346;-6.554;2022-10-22T06:28:27;99258.87;;;13.79;51.43
40372;BME280;28564;53.346;-6.554;2022-10-22T06:30:56;99264.00;;;13.79;51.37
40372;BME280;28564;53.346;-6.554;2022-10-22T06:33:24;99267.20;;;13.83;51.31
40372;BME280;28564;53.346;-6.554;2022-10-22T06:35:51;99264.21;;;14.07;51.28
40372;BME280;28564;53.346;-6.554;2022-10-22T06:38:18;99269.87;;;13.88;51.19
40372;BME280;28564;53.346;-6.554;2022-10-22T06:40:45;99274.05;;;13.89;51.02
40372;BME280;28564;53.346;-6.554;2022-10-22T06:43:13;99278.82;;;13.87;50.95
40372;BME280;28564;53.346;-6.554;2022-10-22T06:45:41;99280.78;;;13.88;50.92
40372;BME280;28564;53.346;-6.554;2022-10-22T06:48:08;99281.82;;;13.89;50.92
40372;BME280;28564;53.346;-6.554;2022-10-22T06:50:35;99286.37;;;13.95;51.09
40372;BME280;28564;53.346;-6.554;2022-10-22T06:53:02;99288.55;;;14.04;50.81
40372;BME280;28564;53.346;-6.554;2022-10-22T06:55:29;99295.09;;;14.15;50.61
40372;BME280;28564;53.346;-6.554;2022-10-22T06:57:56;99300.49;;;14.24;50.25
40372;BME280;28564;53.346;-6.554;2022-10-22T07:00:24;99305.36;;;14.31;50.09
40372;BME280;28564;53.346;-6.554;2022-10-22T07:02:51;99301.73;;;14.55;49.83
40372;BME280;28564;53.346;-6.554;2022-10-22T07:05:19;99311.97;;;14.29;49.66
40372;BME280;28564;53.346;-6.554;2022-10-22T07:07:47;99313.68;;;14.21;49.59
40372;BME280;28564;53.346;-6.554;2022-10-22T07:10:14;99315.21;;;14.17;49.42
40372;BME280;28564;53.346;-6.554;2022-10-22T07:12:41;99316.29;;;14.10;49.56
40372;BME280;28564;53.346;-6.554;2022-10-22T07:15:09;99318.49;;;14.05;49.44
40372;BME280;28564;53.346;-6.554;2022-10-22T07:17:36;99324.94;;;14.01;49.40
40372;BME280;28564;53.346;-6.554;2022-10-22T07:20:04;99336.11;;;13.96;49.45
40372;BME280;28564;53.346;-6.554;2022-10-22T07:22:31;99341.87;;;13.92;49.34
40372;BME280;28564;53.346;-6.554;2022-10-22T07:24:58;99346.74;;;14.11;49.36
40372;BME280;28564;53.346;-6.554;2022-10-22T07:27:26;99350.04;;;13.61;49.41
40372;BME280;28564;53.346;-6.554;2022-10-22T07:29:53;99353.06;;;13.85;49.41
40372;BME280;28564;53.346;-6.554;2022-10-22T07:32:20;99353.44;;;14.04;49.48
40372;BME280;28564;53.346;-6.554;2022-10-22T07:34:47;99356.85;;;13.80;49.40
40372;BME280;28564;53.346;-6.554;2022-10-22T07:37:14;99355.62;;;13.80;49.22
40372;BME280;28564;53.346;-6.554;2022-10-22T07:39:42;99355.79;;;14.03;49.18
40372;BME280;28564;53.346;-6.554;2022-10-22T07:42:09;99357.48;;;13.81;49.19
40372;BME280;28564;53.346;-6.554;2022-10-22T07:44:36;99361.81;;;13.80;49.30
40372;BME280;28564;53.346;-6.554;2022-10-22T07:47:03;99364.43;;;13.82;49.21
40372;BME280;28564;53.346;-6.554;2022-10-22T07:49:30;99370.13;;;14.03;49.13
40372;BME280;28564;53.346;-6.554;2022-10-22T07:51:57;99376.57;;;14.06;49.18
40372;BME280;28564;53.346;-6.554;2022-10-22T07:54:24;99382.96;;;13.58;49.30
40372;BME280;28564;53.346;-6.554;2022-10-22T07:56:51;99387.62;;;13.85;49.29
40372;BME280;28564;53.346;-6.554;2022-10-22T07:59:18;99389.11;;;13.89;49.24
40372;BME280;28564;53.346;-6.554;2022-10-22T08:01:46;99400.56;;;13.91;49.32
40372;BME280;28564;53.346;-6.554;2022-10-22T08:04:13;99403.42;;;13.68;49.37
40372;BME280;28564;53.346;-6.554;2022-10-22T08:06:40;99406.84;;;13.97;49.44
40372;BME280;28564;53.346;-6.554;2022-10-22T08:09:07;99411.74;;;13.74;49.53
40372;BME280;28564;53.346;-6.554;2022-10-22T08:11:34;99411.02;;;14.03;49.49
40372;BME280;28564;53.346;-6.554;2022-10-22T08:14:01;99419.44;;;14.08;49.52
40372;BME280;28564;53.346;-6.554;2022-10-22T08:16:29;99417.98;;;14.11;49.40
40372;BME280;28564;53.346;-6.554;2022-10-22T08:18:56;99420.60;;;13.88;49.48
40372;BME280;28564;53.346;-6.554;2022-10-22T08:21:23;99431.61;;;13.74;49.39
40372;BME280;28564;53.346;-6.554;2022-10-22T08:23:50;99426.79;;;14.25;49.43
40372;BME280;28564;53.346;-6.554;2022-10-22T08:26:17;99438.60;;;14.31;49.22
40372;BME280;28564;53.346;-6.554;2022-10-22T08:28:44;99440.35;;;14.37;49.26
40372;BME280;28564;53.346;-6.554;2022-10-22T08:31:11;99439.44;;;14.45;49.17
40372;BME280;28564;53.346;-6.554;2022-10-22T08:33:39;99443.46;;;14.26;49.08
40372;BME280;28564;53.346;-6.554;2022-10-22T08:36:06;99441.40;;;14.59;49.01
40372;BME280;28564;53.346;-6.554;2022-10-22T08:38:34;99442.31;;;14.63;49.03
40372;BME280;28564;53.346;-6.554;2022-10-22T08:41:08;99443.82;;;14.39;49.12
40372;BME280;28564;53.346;-6.554;2022-10-22T08:44:04;99447.28;;;14.72;49.21
40372;BME280;28564;53.346;-6.554;2022-10-22T08:46:52;99456.99;;;14.49;49.14
40372;BME280;28564;53.346;-6.554;2022-10-22T08:49:27;99449.27;;;14.54;49.01
40372;BME280;28564;53.346;-6.554;2022-10-22T08:51:56;99460.31;;;14.83;49.21
40372;BME280;28564;53.346;-6.554;2022-10-22T08:54:32;99457.26;;;14.88;49.29
40372;BME280;28564;53.346;-6.554;2022-10-22T08:57:15;99458.37;;;14.46;49.34
40372;BME280;28564;53.346;-6.554;2022-10-22T08:59:47;99459.97;;;14.53;49.36
40372;BME280;28564;53.346;-6.554;2022-10-22T09:02:31;99464.13;;;14.62;49.29
40372;BME280;28564;53.346;-6.554;2022-10-22T09:05:05;99462.57;;;14.74;49.27
40372;BME280;28564;53.346;-6.554;2022-10-22T09:07:42;99471.27;;;14.86;49.07
40372;BME280;28564;53.346;-6.554;2022-10-22T09:10:11;99473.00;;;14.93;49.15
40372;BME280;28564;53.346;-6.554;2022-10-22T09:12:38;99472.31;;;14.98;48.93
40372;BME280;28564;53.346;-6.554;2022-10-22T09:15:08;99470.98;;;15.01;48.71
40372;BME280;28564;53.346;-6.554;2022-10-22T09:17:40;99472.62;;;15.07;48.76
40372;BME280;28564;53.346;-6.554;2022-10-22T09:20:16;99479.04;;;15.14;48.76
40372;BME280;28564;53.346;-6.554;2022-10-22T09:22:53;99482.49;;;14.96;48.73
40372;BME280;28564;53.346;-6.554;2022-10-22T09:25:26;99481.17;;;15.02;48.75
40372;BME280;28564;53.346;-6.554;2022-10-22T09:27:54;99485.35;;;15.36;48.89
40372;BME280;28564;53.346;-6.554;2022-10-22T09:30:25;99479.91;;;15.14;48.80
40372;BME280;28564;53.346;-6.554;2022-10-22T09:32:58;99487.68;;;15.46;48.57
40372;BME280;28564;53.346;-6.554;2022-10-22T09:35:26;99477.14;;;15.24;48.60
40372;BME280;28564;53.346;-6.554;2022-10-22T09:37:55;99473.47;;;15.28;48.65
40372;BME280;28564;53.346;-6.554;2022-10-22T09:40:22;99476.85;;;15.60;48.66
40372;BME280;28564;53.346;-6.554;2022-10-22T09:42:49;99479.30;;;15.64;48.91
40372;BME280;28564;53.346;-6.554;2022-10-22T09:45:20;99483.28;;;15.45;48.95
40372;BME280;28564;53.346;-6.554;2022-10-22T09:47:49;99484.56;;;15.52;49.01
40372;BME280;28564;53.346;-6.554;2022-10-22T09:50:23;99497.89;;;15.36;49.22
40372;BME280;28564;53.346;-6.554;2022-10-22T09:52:58;99496.21;;;15.90;49.04
40372;BME280;28564;53.346;-6.554;2022-10-22T09:55:26;99501.78;;;15.68;48.82
40372;BME280;28564;53.346;-6.554;2022-10-22T09:57:55;99507.60;;;15.74;48.98
40372;BME280;28564;53.346;-6.554;2022-10-22T10:00:24;99512.98;;;15.60;49.14
40372;BME280;28564;53.346;-6.554;2022-10-22T10:02:55;99514.39;;;15.89;49.16
40372;BME280;28564;53.346;-6.554;2022-10-22T10:05:29;99516.42;;;15.98;48.89
40372;BME280;28564;53.346;-6.554;2022-10-22T10:07:57;99517.20;;;16.01;49.01
40372;BME280;28564;53.346;-6.554;2022-10-22T10:10:36;99516.73;;;16.06;49.01
40372;BME280;28564;53.346;-6.554;2022-10-22T10:13:21;99519.78;;;15.91;49.31
40372;BME280;28564;53.346;-6.554;2022-10-22T10:15:55;99517.54;;;16.00;48.73
40372;BME280;28564;53.346;-6.554;2022-10-22T10:18:37;99521.25;;;16.06;48.61
40372;BME280;28564;53.346;-6.554;2022-10-22T10:21:16;99519.24;;;16.38;48.30
40372;BME280;28564;53.346;-6.554;2022-10-22T10:23:55;99525.59;;;16.26;48.29
40372;BME280;28564;53.346;-6.554;2022-10-22T10:26:29;99536.16;;;16.55;47.95
40372;BME280;28564;53.346;-6.554;2022-10-22T10:29:09;99535.39;;;16.40;48.11
40372;BME280;28564;53.346;-6.554;2022-10-22T10:31:48;99538.28;;;16.51;48.30
40372;BME280;28564;53.346;-6.554;2022-10-22T10:34:28;99537.42;;;16.67;48.07
40372;BME280;28564;53.346;-6.554;2022-10-22T10:37:08;99543.27;;;16.52;47.64
40372;BME280;28564;53.346;-6.554;2022-10-22T10:39:44;99541.69;;;16.80;47.44
40372;BME280;28564;53.346;-6.554;2022-10-22T10:42:23;99539.07;;;16.85;47.54
40372;BME280;28564;53.346;-6.554;2022-10-22T10:45:01;99543.51;;;16.94;47.29
40372;BME280;28564;53.346;-6.554;2022-10-22T10:48:02;99541.22;;;16.56;47.17
40372;BME280;28564;53.346;-6.554;2022-10-22T10:50:38;99548.28;;;16.95;46.90
40372;BME280;28564;53.346;-6.554;2022-10-22T10:53:16;99545.90;;;16.75;47.17
40372;BME280;28564;53.346;-6.554;2022-10-22T10:55:55;99551.00;;;16.85;47.07
40372;BME280;28564;53.346;-6.554;2022-10-22T10:58:33;99553.01;;;16.96;47.07
40372;BME280;28564;53.346;-6.554;2022-10-22T11:01:12;99561.68;;;17.05;46.98
40372;BME280;28564;53.346;-6.554;2022-10-22T11:04:00;99555.20;;;17.15;46.23
40372;BME280;28564;53.346;-6.554;2022-10-22T11:06:32;99552.45;;;17.20;45.88
40372;BME280;28564;53.346;-6.554;2022-10-22T11:09:06;99558.51;;;17.25;46.20
40372;BME280;28564;53.346;-6.554;2022-10-22T11:11:39;99558.41;;;17.37;45.83
40372;BME280;28564;53.346;-6.554;2022-10-22T11:14:12;99557.55;;;17.46;45.93
40372;BME280;28564;53.346;-6.554;2022-10-22T11:16:43;99564.54;;;17.56;45.99
40372;BME280;28564;53.346;-6.554;2022-10-22T11:19:17;99563.18;;;17.71;46.17
40372;BME280;28564;53.346;-6.554;2022-10-22T11:21:51;99563.62;;;17.84;45.54
40372;BME280;28564;53.346;-6.554;2022-10-22T11:24:26;99564.65;;;17.45;45.48
40372;BME280;28564;53.346;-6.554;2022-10-22T11:26:59;99575.31;;;18.05;45.32
40372;BME280;28564;53.346;-6.554;2022-10-22T11:29:34;99561.34;;;17.66;45.55
40372;BME280;28564;53.346;-6.554;2022-10-22T11:32:05;99558.66;;;18.04;45.34
40372;BME280;28564;53.346;-6.554;2022-10-22T11:34:41;99563.93;;;18.16;45.48
40372;BME280;28564;53.346;-6.554;2022-10-22T11:37:12;99561.58;;;18.28;45.23
40372;BME280;28564;53.346;-6.554;2022-10-22T11:39:44;99562.66;;;18.58;44.92
40372;BME280;28564;53.346;-6.554;2022-10-22T11:42:18;99560.04;;;18.43;45.15
40372;BME280;28564;53.346;-6.554;2022-10-22T11:44:57;99563.29;;;18.30;45.10
40372;BME280;28564;53.346;-6.554;2022-10-22T11:47:27;99565.45;;;18.39;44.74
40372;BME280;28564;53.346;-6.554;2022-10-22T11:49:57;99565.80;;;18.29;44.56
40372;BME280;28564;53.346;-6.554;2022-10-22T11:52:37;99573.61;;;18.59;44.60
40372;BME280;28564;53.346;-6.554;2022-10-22T11:55:29;99571.06;;;18.68;44.38
40372;BME280;28564;53.346;-6.554;2022-10-22T11:57:59;99565.16;;;18.79;44.30
40372;BME280;28564;53.346;-6.554;2022-10-22T12:00:35;99561.72;;;18.50;44.51
40372;BME280;28564;53.346;-6.554;2022-10-22T12:03:15;99565.52;;;18.63;44.16
40372;BME280;28564;53.346;-6.554;2022-10-22T12:05:44;99566.25;;;19.09;43.98
40372;BME280;28564;53.346;-6.554;2022-10-22T12:08:22;99567.04;;;18.87;44.09
40372;BME280;28564;53.346;-6.554;2022-10-22T12:11:05;99565.08;;;19.25;44.14
40372;BME280;28564;53.346;-6.554;2022-10-22T12:14:55;99570.76;;;19.43;43.80
40372;BME280;28564;53.346;-6.554;2022-10-22T12:17:24;99572.07;;;19.27;43.83
40372;BME280;28564;53.346;-6.554;2022-10-22T12:19:58;99570.77;;;19.27;44.06
40372;BME280;28564;53.346;-6.554;2022-10-22T12:22:28;99574.47;;;19.73;43.43
40372;BME280;28564;53.346;-6.554;2022-10-22T12:25:00;99572.01;;;21.18;41.34
40372;BME280;28564;53.346;-6.554;2022-10-22T12:27:33;99565.11;;;22.46;38.81
40372;BME280;28564;53.346;-6.554;2022-10-22T12:30:12;99565.57;;;23.79;36.50
40372;BME280;28564;53.346;-6.554;2022-10-22T12:32:42;99564.51;;;24.82;34.95
40372;BME280;28564;53.346;-6.554;2022-10-22T12:35:16;99561.04;;;25.56;33.54
40372;BME280;28564;53.346;-6.554;2022-10-22T12:37:44;99570.83;;;26.07;32.64
40372;BME280;28564;53.346;-6.554;2022-10-22T12:40:17;99557.44;;;26.66;31.52
40372;BME280;28564;53.346;-6.554;2022-10-22T12:42:48;99555.89;;;27.49;30.86
40372;BME280;28564;53.346;-6.554;2022-10-22T12:45:16;99556.24;;;27.95;29.95
40372;BME280;28564;53.346;-6.554;2022-10-22T12:47:45;99551.69;;;28.35;29.64
40372;BME280;28564;53.346;-6.554;2022-10-22T12:50:17;99551.66;;;29.07;28.66
40372;BME280;28564;53.346;-6.554;2022-10-22T12:52:46;99555.16;;;29.38;28.41
40372;BME280;28564;53.346;-6.554;2022-10-22T12:55:17;99551.23;;;28.23;29.54
40372;BME280;28564;53.346;-6.554;2022-10-22T12:57:46;99549.87;;;26.22;31.21
40372;BME280;28564;53.346;-6.554;2022-10-22T13:00:25;99559.10;;;24.84;33.02
40372;BME280;28564;53.346;-6.554;2022-10-22T13:02:53;99550.87;;;24.21;34.66
40372;BME280;28564;53.346;-6.554;2022-10-22T13:05:22;99550.60;;;23.71;35.93
40372;BME280;28564;53.346;-6.554;2022-10-22T13:07:53;99537.81;;;24.38;35.40
40372;BME280;28564;53.346;-6.554;2022-10-22T13:10:24;99549.72;;;26.17;33.27